TSO935 URSS-ULLI
Flight info
| Callsign | TSO935 |
|---|---|
| Flight time | N/A |
| Altitude | 40000 |
| Route | ADNET1S/24 ADNET W79 AMEPU A100 KL L91 KANON T748 PEPOR T611 TUKMO N50 NUDKO T561 ODATI T875 GENPA GENPA1B |
| Aircraft | B772/H-SDE2E3FGHIJ5LORVWXY/LB1D1 |
Departure
| Time | N/A |
|---|---|
| Airport | Sochi International Airport (URSS) |
Arrival
| Time | 2026-05-07 20:46 |
|---|---|
| Airport | Pulkovo Airport (ULLI) |
| Time | Latitude | Longitude | Altitude | Speed | Heading |
|---|---|---|---|---|---|
| 2026-05-07 18:33 | 46.31298 | 39.74790 | 40127 ft | 464 kts | 3° |
| 2026-05-07 18:34 | 46.37770 | 39.75252 | 40125 ft | 465 kts | 4° |
| 2026-05-07 18:34 | 46.44215 | 39.75818 | 40122 ft | 465 kts | 4° |
| 2026-05-07 18:35 | 46.50671 | 39.76387 | 40124 ft | 464 kts | 4° |
| 2026-05-07 18:35 | 46.57106 | 39.76952 | 40121 ft | 465 kts | 4° |
| 2026-05-07 18:36 | 46.63578 | 39.77521 | 40116 ft | 465 kts | 4° |
| 2026-05-07 18:36 | 46.70008 | 39.78086 | 40116 ft | 464 kts | 4° |
| 2026-05-07 18:37 | 46.76457 | 39.78654 | 40107 ft | 464 kts | 4° |
| 2026-05-07 18:37 | 46.82902 | 39.79222 | 40107 ft | 466 kts | 4° |
| 2026-05-07 18:38 | 46.89358 | 39.79793 | 40106 ft | 465 kts | 4° |
| 2026-05-07 18:38 | 46.95813 | 39.80365 | 40106 ft | 464 kts | 4° |
| 2026-05-07 18:39 | 47.02227 | 39.80935 | 40097 ft | 465 kts | 4° |
| 2026-05-07 18:39 | 47.08680 | 39.81509 | 40099 ft | 465 kts | 4° |
| 2026-05-07 18:40 | 47.15129 | 39.82084 | 40097 ft | 464 kts | 4° |
| 2026-05-07 18:40 | 47.21567 | 39.83147 | 40099 ft | 464 kts | 13° |
| 2026-05-07 18:41 | 47.27826 | 39.85356 | 40092 ft | 464 kts | 13° |
| 2026-05-07 18:41 | 47.33938 | 39.87548 | 40097 ft | 463 kts | 13° |
| 2026-05-07 18:42 | 47.40152 | 39.89779 | 40090 ft | 463 kts | 13° |
| 2026-05-07 18:42 | 47.46411 | 39.92030 | 40096 ft | 462 kts | 13° |
| 2026-05-07 18:43 | 47.52604 | 39.94341 | 40091 ft | 463 kts | 16° |
| 2026-05-07 18:43 | 47.58812 | 39.97051 | 40088 ft | 463 kts | 16° |
| 2026-05-07 18:44 | 47.64949 | 39.99729 | 40097 ft | 461 kts | 16° |
| 2026-05-07 18:44 | 47.71135 | 40.02422 | 40090 ft | 462 kts | 16° |
| 2026-05-07 18:45 | 47.77288 | 40.05098 | 40083 ft | 461 kts | 16° |
| 2026-05-07 18:45 | 47.83458 | 40.07786 | 40085 ft | 463 kts | 16° |
| 2026-05-07 18:46 | 47.89616 | 40.10325 | 40081 ft | 460 kts | 11° |
| 2026-05-07 18:46 | 47.95907 | 40.12189 | 40072 ft | 462 kts | 11° |
| 2026-05-07 18:47 | 48.02179 | 40.14030 | 40074 ft | 460 kts | 11° |
| 2026-05-07 18:47 | 48.08462 | 40.15883 | 40092 ft | 462 kts | 11° |
| 2026-05-07 18:48 | 48.14812 | 40.17295 | 40087 ft | 459 kts | 7° |
| 2026-05-07 18:48 | 48.21153 | 40.18549 | 40076 ft | 459 kts | 7° |
| 2026-05-07 18:49 | 48.27477 | 40.19828 | 40077 ft | 460 kts | 7° |
| 2026-05-07 18:49 | 48.32435 | 40.20842 | 40095 ft | 458 kts | 7° |
| 2026-05-07 18:50 | 48.35711 | 40.21516 | 40067 ft | 460 kts | 7° |
| 2026-05-07 18:50 | 48.41752 | 40.22765 | 40089 ft | 457 kts | 7° |
| 2026-05-07 18:51 | 48.48065 | 40.24076 | 40061 ft | 459 kts | 7° |
| 2026-05-07 18:51 | 48.54391 | 40.25394 | 40067 ft | 457 kts | 7° |
| 2026-05-07 18:52 | 48.60677 | 40.26706 | 40048 ft | 459 kts | 7° |
| 2026-05-07 18:52 | 48.67010 | 40.28033 | 40060 ft | 457 kts | 7° |
| 2026-05-07 18:53 | 48.73267 | 40.29347 | 40073 ft | 455 kts | 7° |
| 2026-05-07 18:53 | 48.79556 | 40.30671 | 40050 ft | 455 kts | 7° |
| 2026-05-07 18:54 | 48.85819 | 40.31994 | 40030 ft | 456 kts | 7° |
| 2026-05-07 18:54 | 48.92120 | 40.33329 | 40048 ft | 456 kts | 7° |
| 2026-05-07 18:55 | 48.98376 | 40.34660 | 40047 ft | 458 kts | 7° |
| 2026-05-07 18:55 | 49.04668 | 40.36004 | 40032 ft | 457 kts | 7° |
| 2026-05-07 18:56 | 49.10931 | 40.37344 | 40025 ft | 456 kts | 7° |
| 2026-05-07 18:56 | 49.17242 | 40.38697 | 40022 ft | 458 kts | 7° |
| 2026-05-07 18:57 | 49.23522 | 40.40048 | 40013 ft | 456 kts | 7° |
| 2026-05-07 18:57 | 49.29840 | 40.41410 | 40028 ft | 459 kts | 7° |
| 2026-05-07 18:58 | 49.36134 | 40.42770 | 40029 ft | 457 kts | 7° |
| 2026-05-07 18:58 | 49.42450 | 40.44139 | 40019 ft | 459 kts | 7° |
| 2026-05-07 18:59 | 49.48750 | 40.45508 | 40027 ft | 458 kts | 7° |
| 2026-05-07 18:59 | 49.55059 | 40.46634 | 40014 ft | 457 kts | 2° |
| 2026-05-07 19:00 | 49.61445 | 40.47068 | 40029 ft | 459 kts | 1° |
| 2026-05-07 19:00 | 49.67812 | 40.47491 | 40006 ft | 458 kts | 1° |
| 2026-05-07 19:01 | 49.74147 | 40.47917 | 40013 ft | 459 kts | 2° |
| 2026-05-07 19:01 | 49.80513 | 40.48349 | 40025 ft | 460 kts | 1° |
| 2026-05-07 19:02 | 49.86882 | 40.48783 | 39997 ft | 459 kts | 1° |
| 2026-05-07 19:02 | 49.93248 | 40.49218 | 40005 ft | 459 kts | 1° |
| 2026-05-07 19:03 | 49.99584 | 40.49653 | 40015 ft | 459 kts | 1° |
| 2026-05-07 19:03 | 50.05955 | 40.50266 | 40019 ft | 460 kts | 8° |
| 2026-05-07 19:04 | 50.08966 | 40.51306 | 40030 ft | 461 kts | 15° |
| 2026-05-07 19:04 | 50.14960 | 40.54230 | 40029 ft | 460 kts | 16° |
| 2026-05-07 19:05 | 50.21058 | 40.57259 | 40015 ft | 461 kts | 16° |
| 2026-05-07 19:05 | 50.27174 | 40.60300 | 40031 ft | 462 kts | 16° |
| 2026-05-07 19:06 | 50.33254 | 40.63330 | 40017 ft | 459 kts | 16° |
| 2026-05-07 19:06 | 50.42400 | 40.67901 | 40028 ft | 460 kts | 17° |
| 2026-05-07 19:07 | 50.48465 | 40.70941 | 40002 ft | 460 kts | 17° |
| 2026-05-07 19:07 | 50.54558 | 40.74005 | 40009 ft | 460 kts | 17° |
| 2026-05-07 19:08 | 50.60640 | 40.77070 | 40000 ft | 459 kts | 17° |
| 2026-05-07 19:08 | 50.66710 | 40.80143 | 39998 ft | 461 kts | 17° |
| 2026-05-07 19:09 | 50.72784 | 40.83228 | 39994 ft | 459 kts | 17° |
| 2026-05-07 19:09 | 50.78835 | 40.86309 | 40008 ft | 461 kts | 17° |
| 2026-05-07 19:10 | 50.85031 | 40.88944 | 40020 ft | 459 kts | 6° |
| 2026-05-07 19:10 | 50.91303 | 40.88893 | 40009 ft | 456 kts | 351° |
| 2026-05-07 19:11 | 50.97577 | 40.87341 | 39997 ft | 456 kts | 350° |
| 2026-05-07 19:11 | 51.03833 | 40.85760 | 40001 ft | 455 kts | 350° |
| 2026-05-07 19:12 | 51.10091 | 40.84177 | 40006 ft | 457 kts | 350° |
| 2026-05-07 19:12 | 51.16389 | 40.82583 | 39999 ft | 456 kts | 350° |
| 2026-05-07 19:13 | 51.22635 | 40.80999 | 39994 ft | 458 kts | 350° |
| 2026-05-07 19:13 | 51.28860 | 40.79416 | 40002 ft | 456 kts | 350° |
| 2026-05-07 19:14 | 51.35173 | 40.77806 | 39999 ft | 459 kts | 350° |
| 2026-05-07 19:14 | 51.41416 | 40.76210 | 39996 ft | 458 kts | 350° |
| 2026-05-07 19:15 | 51.47683 | 40.74604 | 39990 ft | 458 kts | 350° |
| 2026-05-07 19:15 | 51.53958 | 40.72991 | 39987 ft | 458 kts | 350° |
| 2026-05-07 19:16 | 51.60247 | 40.71370 | 39985 ft | 460 kts | 350° |
| 2026-05-07 19:16 | 51.66563 | 40.69738 | 39980 ft | 460 kts | 350° |
| 2026-05-07 19:17 | 51.72847 | 40.68108 | 39977 ft | 460 kts | 349° |
| 2026-05-07 19:17 | 51.79184 | 40.66455 | 39968 ft | 462 kts | 350° |
| 2026-05-07 19:18 | 51.85493 | 40.64806 | 39967 ft | 461 kts | 350° |
| 2026-05-07 19:18 | 51.91817 | 40.63153 | 39964 ft | 461 kts | 350° |
| 2026-05-07 19:19 | 51.98112 | 40.61503 | 39959 ft | 461 kts | 350° |
| 2026-05-07 19:19 | 52.04445 | 40.59838 | 39956 ft | 462 kts | 350° |
| 2026-05-07 19:20 | 52.10737 | 40.58179 | 39955 ft | 462 kts | 350° |
| 2026-05-07 19:20 | 52.17086 | 40.56501 | 39959 ft | 462 kts | 350° |
| 2026-05-07 19:21 | 52.23431 | 40.54818 | 39950 ft | 462 kts | 350° |
| 2026-05-07 19:21 | 52.29772 | 40.53132 | 39949 ft | 463 kts | 350° |
| 2026-05-07 19:22 | 52.36128 | 40.51437 | 39951 ft | 462 kts | 350° |
| 2026-05-07 19:22 | 52.42458 | 40.49744 | 39958 ft | 463 kts | 350° |
| 2026-05-07 19:23 | 52.48786 | 40.47729 | 39948 ft | 461 kts | 342° |
| 2026-05-07 19:23 | 52.54631 | 40.43322 | 39957 ft | 460 kts | 330° |
| 2026-05-07 19:24 | 52.60176 | 40.38147 | 39962 ft | 460 kts | 330° |
| 2026-05-07 19:24 | 52.65755 | 40.32914 | 39965 ft | 460 kts | 329° |
| 2026-05-07 19:25 | 52.71297 | 40.27702 | 39962 ft | 461 kts | 329° |
| 2026-05-07 19:25 | 52.76875 | 40.22440 | 39962 ft | 460 kts | 329° |
| 2026-05-07 19:26 | 52.82406 | 40.17208 | 39965 ft | 460 kts | 329° |
| 2026-05-07 19:26 | 52.87926 | 40.11971 | 39962 ft | 460 kts | 329° |
| 2026-05-07 19:27 | 52.93460 | 40.06707 | 39961 ft | 460 kts | 329° |
| 2026-05-07 19:27 | 52.98980 | 40.01441 | 39955 ft | 461 kts | 329° |
| 2026-05-07 19:28 | 53.01893 | 39.98655 | 39873 ft | 459 kts | 329° |
| 2026-05-07 19:28 | 53.07405 | 39.93371 | 39978 ft | 461 kts | 329° |
| 2026-05-07 19:29 | 53.12981 | 39.88011 | 39994 ft | 460 kts | 329° |
| 2026-05-07 19:29 | 53.18525 | 39.82665 | 39987 ft | 459 kts | 329° |
| 2026-05-07 19:30 | 53.24013 | 39.77358 | 39968 ft | 459 kts | 329° |
| 2026-05-07 19:30 | 53.29505 | 39.72030 | 39959 ft | 459 kts | 329° |
| 2026-05-07 19:31 | 53.35016 | 39.66668 | 39956 ft | 458 kts | 329° |
| 2026-05-07 19:31 | 53.40474 | 39.61341 | 39953 ft | 459 kts | 329° |
| 2026-05-07 19:32 | 53.46099 | 39.56335 | 39952 ft | 461 kts | 333° |
| 2026-05-07 19:32 | 53.51817 | 39.51567 | 39946 ft | 460 kts | 332° |
| 2026-05-07 19:33 | 53.57520 | 39.46763 | 39949 ft | 461 kts | 332° |
| 2026-05-07 19:33 | 53.63231 | 39.41920 | 39941 ft | 462 kts | 332° |
| 2026-05-07 19:34 | 53.68958 | 39.37039 | 39947 ft | 462 kts | 332° |
| 2026-05-07 19:34 | 53.74677 | 39.32144 | 39947 ft | 462 kts | 332° |
| 2026-05-07 19:35 | 53.80362 | 39.27262 | 39942 ft | 461 kts | 331° |
| 2026-05-07 19:35 | 53.86065 | 39.22347 | 39941 ft | 462 kts | 332° |
| 2026-05-07 19:36 | 53.91773 | 39.17409 | 39948 ft | 462 kts | 331° |
| 2026-05-07 19:36 | 53.97472 | 39.12458 | 39945 ft | 463 kts | 332° |
| 2026-05-07 19:37 | 54.03198 | 39.07471 | 39937 ft | 464 kts | 332° |
| 2026-05-07 19:37 | 54.08926 | 39.02465 | 39935 ft | 463 kts | 332° |
| 2026-05-07 19:38 | 54.14656 | 38.97442 | 39937 ft | 463 kts | 332° |
| 2026-05-07 19:38 | 54.20415 | 38.92378 | 39931 ft | 463 kts | 331° |
| 2026-05-07 19:39 | 54.25681 | 38.86131 | 39943 ft | 462 kts | 317° |
| 2026-05-07 19:39 | 54.30447 | 38.78739 | 39940 ft | 462 kts | 316° |
| 2026-05-07 19:40 | 54.35181 | 38.71338 | 39935 ft | 460 kts | 316° |
| 2026-05-07 19:40 | 54.39908 | 38.63926 | 39931 ft | 461 kts | 316° |
| 2026-05-07 19:41 | 54.44622 | 38.56510 | 39932 ft | 461 kts | 316° |
| 2026-05-07 19:41 | 54.49322 | 38.49092 | 39931 ft | 461 kts | 316° |
| 2026-05-07 19:42 | 54.54024 | 38.41648 | 39936 ft | 461 kts | 316° |
| 2026-05-07 19:42 | 54.58745 | 38.34149 | 39922 ft | 461 kts | 315° |
| 2026-05-07 19:43 | 54.63468 | 38.26622 | 39929 ft | 462 kts | 315° |
| 2026-05-07 19:43 | 54.68206 | 38.19046 | 39903 ft | 460 kts | 315° |
| 2026-05-07 19:44 | 54.72892 | 38.11526 | 39924 ft | 460 kts | 315° |
| 2026-05-07 19:44 | 54.77552 | 38.04015 | 39910 ft | 460 kts | 314° |
| 2026-05-07 19:45 | 54.82206 | 37.96488 | 39926 ft | 459 kts | 315° |
| 2026-05-07 19:45 | 54.86862 | 37.88931 | 39934 ft | 459 kts | 314° |
| 2026-05-07 19:46 | 54.91530 | 37.81331 | 39940 ft | 460 kts | 314° |
| 2026-05-07 19:46 | 54.96169 | 37.73754 | 39919 ft | 458 kts | 314° |
| 2026-05-07 19:47 | 55.00802 | 37.66160 | 39943 ft | 458 kts | 314° |
| 2026-05-07 19:47 | 55.05391 | 37.58614 | 39950 ft | 457 kts | 314° |
| 2026-05-07 19:48 | 55.09998 | 37.51014 | 39932 ft | 456 kts | 314° |
| 2026-05-07 19:48 | 55.14586 | 37.43424 | 39944 ft | 456 kts | 314° |
| 2026-05-07 19:49 | 55.19174 | 37.35815 | 39927 ft | 454 kts | 314° |
| 2026-05-07 19:49 | 55.23715 | 37.28256 | 39931 ft | 455 kts | 313° |
| 2026-05-07 19:50 | 55.28279 | 37.20635 | 39922 ft | 454 kts | 313° |
| 2026-05-07 19:50 | 55.32836 | 37.12999 | 39923 ft | 453 kts | 313° |
| 2026-05-07 19:51 | 55.37349 | 37.05411 | 39917 ft | 453 kts | 313° |
| 2026-05-07 19:51 | 55.41870 | 36.97786 | 39912 ft | 452 kts | 313° |
| 2026-05-07 19:52 | 55.46396 | 36.90126 | 39901 ft | 451 kts | 313° |
| 2026-05-07 19:52 | 55.50896 | 36.82482 | 39903 ft | 454 kts | 313° |
| 2026-05-07 19:53 | 55.55769 | 36.75368 | 39889 ft | 456 kts | 321° |
| 2026-05-07 19:53 | 55.60881 | 36.68840 | 39904 ft | 455 kts | 321° |
| 2026-05-07 19:54 | 55.66007 | 36.62267 | 39904 ft | 454 kts | 321° |
| 2026-05-07 19:54 | 55.71135 | 36.55662 | 39883 ft | 454 kts | 321° |
| 2026-05-07 19:55 | 55.76203 | 36.49108 | 39898 ft | 454 kts | 321° |
| 2026-05-07 19:55 | 55.81332 | 36.42452 | 39910 ft | 454 kts | 321° |
| 2026-05-07 19:56 | 55.86420 | 36.35825 | 39889 ft | 453 kts | 321° |
| 2026-05-07 19:56 | 55.91487 | 36.29203 | 39888 ft | 453 kts | 320° |
| 2026-05-07 19:57 | 55.96534 | 36.22586 | 39878 ft | 452 kts | 320° |
| 2026-05-07 19:57 | 56.01577 | 36.15951 | 39875 ft | 451 kts | 319° |
| 2026-05-07 19:58 | 56.06609 | 36.09310 | 39899 ft | 450 kts | 319° |
| 2026-05-07 19:58 | 56.11593 | 36.02722 | 39880 ft | 448 kts | 319° |
| 2026-05-07 19:59 | 56.16620 | 35.96086 | 39906 ft | 450 kts | 319° |
| 2026-05-07 19:59 | 56.21645 | 35.89432 | 39899 ft | 447 kts | 319° |
| 2026-05-07 20:00 | 56.26641 | 35.82789 | 39874 ft | 449 kts | 319° |
| 2026-05-07 20:00 | 56.31622 | 35.76147 | 39882 ft | 448 kts | 319° |
| 2026-05-07 20:01 | 56.36603 | 35.69479 | 39875 ft | 449 kts | 319° |
| 2026-05-07 20:01 | 56.41591 | 35.62783 | 39873 ft | 448 kts | 319° |
| 2026-05-07 20:02 | 56.46577 | 35.56075 | 39870 ft | 449 kts | 319° |
| 2026-05-07 20:02 | 56.51567 | 35.49343 | 39870 ft | 449 kts | 318° |
| 2026-05-07 20:03 | 56.56535 | 35.42619 | 39872 ft | 448 kts | 318° |
| 2026-05-07 20:03 | 56.61500 | 35.35821 | 39861 ft | 449 kts | 318° |
| 2026-05-07 20:04 | 56.66471 | 35.28953 | 39873 ft | 448 kts | 317° |
| 2026-05-07 20:04 | 56.71466 | 35.22029 | 39871 ft | 449 kts | 317° |
| 2026-05-07 20:05 | 56.76387 | 35.15190 | 39877 ft | 448 kts | 317° |
| 2026-05-07 20:05 | 56.81316 | 35.08313 | 39862 ft | 449 kts | 317° |
| 2026-05-07 20:06 | 56.86272 | 35.01379 | 39876 ft | 448 kts | 316° |
| 2026-05-07 20:06 | 56.91186 | 34.94478 | 39865 ft | 448 kts | 316° |
| 2026-05-07 20:07 | 56.96410 | 34.88060 | 39863 ft | 453 kts | 321° |
| 2026-05-07 20:07 | 57.01667 | 34.81874 | 39854 ft | 451 kts | 321° |
| 2026-05-07 20:08 | 57.06945 | 34.75592 | 39858 ft | 451 kts | 321° |
| 2026-05-07 20:08 | 57.12160 | 34.69340 | 39867 ft | 450 kts | 321° |
| 2026-05-07 20:09 | 57.17410 | 34.63009 | 39881 ft | 451 kts | 321° |
| 2026-05-07 20:10 | 57.25270 | 34.53478 | 39880 ft | 452 kts | 320° |
| 2026-05-07 20:10 | 57.30485 | 34.47126 | 39871 ft | 451 kts | 320° |
| 2026-05-07 20:11 | 57.35723 | 34.40720 | 39882 ft | 451 kts | 320° |
| 2026-05-07 20:11 | 57.40924 | 34.34339 | 39892 ft | 450 kts | 319° |
| 2026-05-07 20:12 | 57.46179 | 34.27866 | 39897 ft | 450 kts | 319° |
| 2026-05-07 20:12 | 57.51348 | 34.21479 | 39884 ft | 449 kts | 319° |
| 2026-05-07 20:13 | 57.56548 | 34.15029 | 39889 ft | 450 kts | 319° |
| 2026-05-07 20:13 | 57.61700 | 34.08619 | 39887 ft | 448 kts | 319° |
| 2026-05-07 20:14 | 57.66907 | 34.02113 | 39889 ft | 453 kts | 319° |
| 2026-05-07 20:14 | 57.72099 | 33.95608 | 39910 ft | 451 kts | 319° |
| 2026-05-07 20:15 | 57.77305 | 33.89062 | 39905 ft | 452 kts | 319° |
| 2026-05-07 20:15 | 57.82481 | 33.82528 | 39941 ft | 454 kts | 319° |
| 2026-05-07 20:16 | 57.87676 | 33.75782 | 39911 ft | 449 kts | 315° |
| 2026-05-07 20:16 | 57.92515 | 33.68493 | 39905 ft | 447 kts | 315° |
| 2026-05-07 20:17 | 57.97361 | 33.61122 | 39945 ft | 449 kts | 315° |
| 2026-05-07 20:17 | 58.02174 | 33.53780 | 39922 ft | 447 kts | 315° |
| 2026-05-07 20:18 | 58.06991 | 33.46403 | 39946 ft | 448 kts | 315° |
| 2026-05-07 20:18 | 58.11814 | 33.38993 | 39940 ft | 447 kts | 315° |
| 2026-05-07 20:19 | 58.16628 | 33.31571 | 39944 ft | 446 kts | 314° |
| 2026-05-07 20:19 | 58.21397 | 33.24198 | 39635 ft | 441 kts | 314° |
| 2026-05-07 20:19 | 58.23744 | 33.20560 | 38858 ft | 446 kts | 313° |
| 2026-05-07 20:20 | 58.26140 | 33.16833 | 37998 ft | 450 kts | 313° |
| 2026-05-07 20:20 | 58.28561 | 33.13065 | 37194 ft | 453 kts | 312° |
| 2026-05-07 20:20 | 58.30982 | 33.09291 | 36439 ft | 456 kts | 312° |
| 2026-05-07 20:20 | 58.33449 | 33.05439 | 35738 ft | 459 kts | 311° |
| 2026-05-07 20:21 | 58.35883 | 33.01629 | 34966 ft | 464 kts | 311° |
| 2026-05-07 20:21 | 58.38373 | 32.97723 | 33999 ft | 468 kts | 311° |
| 2026-05-07 20:21 | 58.40897 | 32.93758 | 32974 ft | 471 kts | 311° |
| 2026-05-07 20:21 | 58.43395 | 32.89830 | 32045 ft | 471 kts | 311° |
| 2026-05-07 20:22 | 58.45901 | 32.85884 | 31128 ft | 470 kts | 311° |
| 2026-05-07 20:22 | 58.48411 | 32.81924 | 30308 ft | 467 kts | 311° |
| 2026-05-07 20:22 | 58.50897 | 32.78000 | 29813 ft | 457 kts | 311° |
| 2026-05-07 20:22 | 58.53302 | 32.74197 | 29266 ft | 449 kts | 311° |
| 2026-05-07 20:23 | 58.55688 | 32.70412 | 28673 ft | 442 kts | 311° |
| 2026-05-07 20:23 | 58.58007 | 32.66724 | 28079 ft | 437 kts | 311° |
| 2026-05-07 20:23 | 58.60336 | 32.63013 | 27489 ft | 431 kts | 311° |
| 2026-05-07 20:23 | 58.62613 | 32.59376 | 26922 ft | 425 kts | 311° |
| 2026-05-07 20:24 | 58.64835 | 32.55824 | 26357 ft | 420 kts | 311° |
| 2026-05-07 20:24 | 58.67073 | 32.52237 | 25800 ft | 416 kts | 312° |
| 2026-05-07 20:24 | 58.69247 | 32.48747 | 25253 ft | 411 kts | 312° |
| 2026-05-07 20:24 | 58.71435 | 32.45229 | 24710 ft | 407 kts | 312° |
| 2026-05-07 20:25 | 58.73584 | 32.41767 | 24182 ft | 403 kts | 312° |
| 2026-05-07 20:25 | 58.75710 | 32.38336 | 23652 ft | 399 kts | 313° |
| 2026-05-07 20:25 | 58.77806 | 32.34949 | 23099 ft | 396 kts | 312° |
| 2026-05-07 20:25 | 58.79913 | 32.31537 | 22560 ft | 392 kts | 312° |
| 2026-05-07 20:26 | 58.81999 | 32.28154 | 22004 ft | 389 kts | 313° |
| 2026-05-07 20:26 | 58.84034 | 32.24849 | 21462 ft | 387 kts | 313° |
| 2026-05-07 20:26 | 58.86096 | 32.21493 | 20910 ft | 384 kts | 313° |
| 2026-05-07 20:26 | 58.88118 | 32.18199 | 20354 ft | 381 kts | 313° |
| 2026-05-07 20:27 | 58.90137 | 32.14904 | 19800 ft | 379 kts | 313° |
| 2026-05-07 20:27 | 58.92115 | 32.11670 | 19262 ft | 376 kts | 313° |
| 2026-05-07 20:27 | 58.94101 | 32.08419 | 18698 ft | 374 kts | 314° |
| 2026-05-07 20:27 | 58.96071 | 32.05190 | 18147 ft | 371 kts | 314° |
| 2026-05-07 20:28 | 58.98035 | 32.01965 | 17600 ft | 369 kts | 314° |
| 2026-05-07 20:28 | 58.99959 | 31.98800 | 17045 ft | 367 kts | 315° |
| 2026-05-07 20:28 | 59.01895 | 31.95610 | 16482 ft | 365 kts | 315° |
| 2026-05-07 20:28 | 59.03802 | 31.92466 | 15933 ft | 362 kts | 316° |
| 2026-05-07 20:29 | 59.05707 | 31.89319 | 15384 ft | 360 kts | 316° |
| 2026-05-07 20:29 | 59.07616 | 31.86161 | 14812 ft | 358 kts | 316° |
| 2026-05-07 20:29 | 59.09470 | 31.83087 | 14268 ft | 355 kts | 317° |
| 2026-05-07 20:29 | 59.11329 | 31.79980 | 13726 ft | 352 kts | 316° |
| 2026-05-07 20:30 | 59.13080 | 31.76691 | 13188 ft | 349 kts | 313° |
| 2026-05-07 20:30 | 59.14807 | 31.73352 | 12626 ft | 347 kts | 314° |
| 2026-05-07 20:30 | 59.16513 | 31.70076 | 12078 ft | 345 kts | 314° |
| 2026-05-07 20:30 | 59.18205 | 31.66840 | 11536 ft | 344 kts | 315° |
| 2026-05-07 20:31 | 59.19911 | 31.63587 | 10982 ft | 342 kts | 315° |
| 2026-05-07 20:31 | 59.21570 | 31.60425 | 10742 ft | 331 kts | 315° |
| 2026-05-07 20:31 | 59.23184 | 31.57349 | 10666 ft | 316 kts | 315° |
| 2026-05-07 20:31 | 59.24704 | 31.54447 | 10567 ft | 303 kts | 316° |
| 2026-05-07 20:32 | 59.26195 | 31.51598 | 10418 ft | 293 kts | 316° |
| 2026-05-07 20:32 | 59.27616 | 31.48877 | 10295 ft | 283 kts | 316° |
| 2026-05-07 20:32 | 59.28995 | 31.46232 | 10198 ft | 274 kts | 316° |
| 2026-05-07 20:32 | 59.30331 | 31.43667 | 10086 ft | 265 kts | 316° |
| 2026-05-07 20:33 | 59.31627 | 31.41175 | 9856 ft | 261 kts | 316° |
| 2026-05-07 20:33 | 59.32918 | 31.38692 | 9514 ft | 263 kts | 317° |
| 2026-05-07 20:33 | 59.34219 | 31.36187 | 9191 ft | 263 kts | 317° |
| 2026-05-07 20:33 | 59.35510 | 31.33696 | 8880 ft | 262 kts | 316° |
| 2026-05-07 20:34 | 59.36802 | 31.31203 | 8575 ft | 262 kts | 317° |
| 2026-05-07 20:34 | 59.38100 | 31.28694 | 8273 ft | 261 kts | 317° |
| 2026-05-07 20:34 | 59.39380 | 31.26217 | 7966 ft | 261 kts | 317° |
| 2026-05-07 20:34 | 59.40669 | 31.23720 | 7662 ft | 260 kts | 317° |
| 2026-05-07 20:35 | 59.41954 | 31.21228 | 7355 ft | 259 kts | 317° |
| 2026-05-07 20:35 | 59.43226 | 31.18758 | 7049 ft | 259 kts | 318° |
| 2026-05-07 20:35 | 59.44500 | 31.16282 | 6748 ft | 258 kts | 318° |
| 2026-05-07 20:35 | 59.45760 | 31.13831 | 6447 ft | 257 kts | 319° |
| 2026-05-07 20:36 | 59.47031 | 31.11355 | 6145 ft | 257 kts | 319° |
| 2026-05-07 20:36 | 59.48297 | 31.08885 | 5836 ft | 256 kts | 319° |
| 2026-05-07 20:36 | 59.49553 | 31.06434 | 5534 ft | 255 kts | 319° |
| 2026-05-07 20:36 | 59.50813 | 31.03970 | 5232 ft | 254 kts | 319° |
| 2026-05-07 20:37 | 59.52057 | 31.01528 | 4938 ft | 254 kts | 317° |
| 2026-05-07 20:37 | 59.53193 | 30.98938 | 4818 ft | 250 kts | 313° |
| 2026-05-07 20:37 | 59.54321 | 30.96285 | 4724 ft | 253 kts | 314° |
| 2026-05-07 20:37 | 59.55464 | 30.93644 | 4598 ft | 253 kts | 314° |
| 2026-05-07 20:38 | 59.56593 | 30.91054 | 4471 ft | 252 kts | 314° |
| 2026-05-07 20:38 | 59.57744 | 30.88415 | 4258 ft | 252 kts | 315° |
| 2026-05-07 20:38 | 59.58868 | 30.85835 | 4119 ft | 248 kts | 314° |
| 2026-05-07 20:38 | 59.59998 | 30.83240 | 3991 ft | 249 kts | 314° |
| 2026-05-07 20:39 | 59.61120 | 30.80661 | 3860 ft | 248 kts | 314° |
| 2026-05-07 20:39 | 59.62221 | 30.78122 | 3732 ft | 242 kts | 314° |
| 2026-05-07 20:39 | 59.63298 | 30.75638 | 3606 ft | 235 kts | 314° |
| 2026-05-07 20:39 | 59.64345 | 30.73222 | 3482 ft | 228 kts | 315° |
| 2026-05-07 20:40 | 59.65360 | 30.70880 | 3364 ft | 222 kts | 315° |
| 2026-05-07 20:40 | 59.66347 | 30.68607 | 3247 ft | 215 kts | 317° |
| 2026-05-07 20:40 | 59.67477 | 30.66766 | 3137 ft | 205 kts | 328° |
| 2026-05-07 20:40 | 59.68620 | 30.65164 | 3035 ft | 199 kts | 329° |
| 2026-05-07 20:41 | 59.69713 | 30.63642 | 2951 ft | 188 kts | 329° |
| 2026-05-07 20:41 | 59.70761 | 30.62184 | 2843 ft | 176 kts | 329° |
| 2026-05-07 20:41 | 59.71733 | 30.60830 | 2748 ft | 168 kts | 329° |
| 2026-05-07 20:41 | 59.72673 | 30.59522 | 2664 ft | 166 kts | 329° |
| 2026-05-07 20:42 | 59.73629 | 30.58190 | 2577 ft | 167 kts | 329° |
| 2026-05-07 20:42 | 59.74520 | 30.56752 | 2497 ft | 169 kts | 313° |
| 2026-05-07 20:42 | 59.75055 | 30.54658 | 2479 ft | 172 kts | 293° |
| 2026-05-07 20:42 | 59.75423 | 30.52367 | 2480 ft | 177 kts | 291° |
| 2026-05-07 20:43 | 59.75765 | 30.50095 | 2484 ft | 170 kts | 291° |
| 2026-05-07 20:43 | 59.76099 | 30.47843 | 2383 ft | 168 kts | 290° |
| 2026-05-07 20:43 | 59.76410 | 30.45677 | 2125 ft | 162 kts | 291° |
| 2026-05-07 20:43 | 59.76720 | 30.43633 | 1872 ft | 146 kts | 291° |
| 2026-05-07 20:44 | 59.77009 | 30.41739 | 1658 ft | 145 kts | 290° |
| 2026-05-07 20:44 | 59.77303 | 30.39818 | 1422 ft | 146 kts | 290° |
| 2026-05-07 20:44 | 59.77586 | 30.37910 | 1145 ft | 138 kts | 290° |
| 2026-05-07 20:44 | 59.77867 | 30.36097 | 913 ft | 139 kts | 289° |
| 2026-05-07 20:45 | 59.78140 | 30.34253 | 729 ft | 140 kts | 287° |
| 2026-05-07 20:45 | 59.78414 | 30.32398 | 552 ft | 137 kts | 287° |
| 2026-05-07 20:45 | 59.78684 | 30.30621 | 384 ft | 135 kts | 286° |
| 2026-05-07 20:45 | 59.78953 | 30.28839 | 199 ft | 136 kts | 286° |
| 2026-05-07 20:46 | 59.79216 | 30.27095 | 95 ft | 122 kts | 286° |
| 2026-05-07 20:46 | 59.79413 | 30.25762 | 92 ft | 74 kts | 286° |
| 2026-05-07 20:46 | 59.79518 | 30.25018 | 92 ft | 49 kts | 285° |
| 2026-05-07 20:46 | 59.79608 | 30.24397 | 92 ft | 44 kts | 286° |
| 2026-05-07 20:47 | 59.79689 | 30.23840 | 92 ft | 39 kts | 286° |
| 2026-05-07 20:47 | 59.79752 | 30.23454 | 92 ft | 29 kts | 293° |
| 2026-05-07 20:47 | 59.79858 | 30.23149 | 92 ft | 20 kts | 311° |
| 2026-05-07 20:47 | 59.79942 | 30.23029 | 92 ft | 13 kts | 8° |
| 2026-05-07 20:48 | 59.79974 | 30.23120 | 92 ft | 10 kts | 89° |
| 2026-05-07 20:48 | 59.79955 | 30.23276 | 92 ft | 13 kts | 107° |
| 2026-05-07 20:48 | 59.79922 | 30.23491 | 92 ft | 19 kts | 106° |
| 2026-05-07 20:48 | 59.79877 | 30.23793 | 92 ft | 26 kts | 106° |
| 2026-05-07 20:49 | 59.79823 | 30.24161 | 92 ft | 28 kts | 106° |
| 2026-05-07 20:49 | 59.79764 | 30.24547 | 92 ft | 29 kts | 106° |
| 2026-05-07 20:49 | 59.79709 | 30.24944 | 92 ft | 30 kts | 106° |
| 2026-05-07 20:49 | 59.79650 | 30.25345 | 92 ft | 30 kts | 106° |
| 2026-05-07 20:50 | 59.79590 | 30.25751 | 92 ft | 28 kts | 106° |
| 2026-05-07 20:50 | 59.79559 | 30.25962 | 92 ft | 15 kts | 106° |
| 2026-05-07 20:50 | 59.79525 | 30.26184 | 92 ft | 13 kts | 107° |
| 2026-05-07 20:50 | 59.79539 | 30.26301 | 92 ft | 10 kts | 39° |
| 2026-05-07 20:51 | 59.79618 | 30.26360 | 92 ft | 13 kts | 15° |
| 2026-05-07 20:51 | 59.79682 | 30.26396 | 92 ft | 10 kts | 15° |
| 2026-05-07 20:51 | 59.79728 | 30.26435 | 92 ft | 6 kts | 50° |
| 2026-05-07 20:51 | 59.79737 | 30.26490 | 92 ft | 5 kts | 88° |
| 2026-05-07 20:52 | 59.79728 | 30.26576 | 92 ft | 5 kts | 108° |
| 2026-05-07 20:52 | 59.79724 | 30.26603 | 92 ft | 3 kts | 108° |
| 2026-05-07 20:52 | 59.79721 | 30.26621 | 92 ft | 0 kts | 107° |